St. Andrew — C6YQ2 — position and weather

sailwx.info

Track history (hours):
 
Tides and Currents Weather Stations Pressure Air Temp Water Temp Dewpoint Dewpoint Depression Visibility Wind Speed Wind Dir Waves Ship Positions

St. Andrew

Last reported at 2018-Jan-08 23:58 UTC. Time now 2018-Feb-25 21:58 UTC.
Position N 35°58' W 005°36'.
Warning: this ship's position is 47 days out of date.

Length 180 m; draft 10.2 m.

Type: Cargo ship. MMSI: 311041600.

Date/timePositionNaut miles runAvg speedWind from/ knotsBaromVisibWave heightAir tempDewpointWater temp
2018-Jan-08 23:58N 35°58' W 005°36'4 8.5
2018-Jan-08 23:30N 35°59' W 005°32'6 9.2
2018-Jan-08 22:52N 36°01' W 005°25'4 8.7
2018-Jan-08 22:27N 36°02' W 005°20'4 8.8
2018-Jan-08 22:00N 36°03' W 005°16'14 9.9
2018-Jan-08 20:36N 36°05' W 004°59'310.0
2018-Jan-08 20:19N 36°05' W 004°55'310.0
2018-Jan-08 20:00N 36°06' W 004°51'510.2
2018-Jan-08 19:30N 36°06' W 004°45'510.1
2018-Jan-08 19:00N 36°07' W 004°39'5 9.7
2018-Jan-08 18:30N 36°08' W 004°33'5 9.3
2018-Jan-08 17:59N 36°09' W 004°27'3 6.5
2018-Jan-08 17:30N 36°09' W 004°23'4 8.1
2018-Jan-08 17:00N 36°10' W 004°18'5 9.6
2018-Jan-08 16:30N 36°11' W 004°12'5 9.4
2018-Jan-08 16:00N 36°11' W 004°07'5 9.1
2018-Jan-08 15:30N 36°12' W 004°01'5 9.5
2018-Jan-08 15:00N 36°13' W 003°55'510.6
2018-Jan-08 14:30N 36°14' W 003°49'611.3
2018-Jan-08 14:00N 36°14' W 003°42'611.2
2018-Jan-08 13:30N 36°15' W 003°35'510.9
2018-Jan-08 13:00N 36°16' W 003°28'511.0
2018-Jan-08 12:30N 36°17' W 003°22'  
2018-Jan-04 22:07N 36°35' E 014°06'1 8.5
2018-Jan-04 21:58N 36°34' E 014°07'4 8.3
2018-Jan-04 21:30N 36°33' E 014°12'12 8.5
2018-Jan-04 20:09N 36°30' E 014°26'3 8.6
2018-Jan-04 19:47N 36°29' E 014°29'2 8.5
2018-Jan-04 19:30N 36°28' E 014°32'  
2018-Jan-02 11:45N 36°50' E 023°33'711.2
2018-Jan-02 11:08N 36°56' E 023°37'212.2
2018-Jan-02 11:00N 36°58' E 023°38'612.5
2018-Jan-02 10:30N 37°03' E 023°42'612.3
2018-Jan-02 10:00N 37°08' E 023°46'612.0
2018-Jan-02 09:30N 37°13' E 023°50'1212.1
2018-Jan-02 08:30N 37°24' E 023°58'912.0
2018-Jan-02 07:44N 37°32' E 024°02'312.4
2018-Jan-02 07:30N 37°35' E 024°03'13 3.4
2018-Jan-02 03:51N 37°47' E 024°07'410.9
2018-Jan-02 03:30N 37°48' E 024°12'1210.7
2018-Jan-02 02:21N 37°53' E 024°26'410.8
2018-Jan-02 02:00N 37°54' E 024°31'610.1
2018-Jan-02 01:27N 37°59' E 024°35'  
Track history (hours):
 
Tides and Currents Weather Stations Pressure Air Temp Water Temp Dewpoint Dewpoint Depression Visibility Wind Speed Wind Dir Waves Ship Positions

St. Andrew

Last reported at 2018-Jan-08 23:58 UTC. Time now 2018-Feb-25 21:58 UTC.
Position N 35°58' W 005°36'.
Warning: this ship's position is 47 days out of date.

Length 180 m; draft 10.2 m.

Type: Cargo ship. MMSI: 311041600.

Date/timePositionNaut miles runAvg speedWind from/ knotsBaromVisibWave heightAir tempDewpointWater temp
2018-Jan-08 23:58N 35°58' W 005°36'4 8.5
2018-Jan-08 23:30N 35°59' W 005°32'6 9.2
2018-Jan-08 22:52N 36°01' W 005°25'4 8.7
2018-Jan-08 22:27N 36°02' W 005°20'4 8.8
2018-Jan-08 22:00N 36°03' W 005°16'14 9.9
2018-Jan-08 20:36N 36°05' W 004°59'310.0
2018-Jan-08 20:19N 36°05' W 004°55'310.0
2018-Jan-08 20:00N 36°06' W 004°51'510.2
2018-Jan-08 19:30N 36°06' W 004°45'510.1
2018-Jan-08 19:00N 36°07' W 004°39'5 9.7
2018-Jan-08 18:30N 36°08' W 004°33'5 9.3
2018-Jan-08 17:59N 36°09' W 004°27'3 6.5
2018-Jan-08 17:30N 36°09' W 004°23'4 8.1
2018-Jan-08 17:00N 36°10' W 004°18'5 9.6
2018-Jan-08 16:30N 36°11' W 004°12'5 9.4
2018-Jan-08 16:00N 36°11' W 004°07'5 9.1
2018-Jan-08 15:30N 36°12' W 004°01'5 9.5
2018-Jan-08 15:00N 36°13' W 003°55'510.6
2018-Jan-08 14:30N 36°14' W 003°49'611.3
2018-Jan-08 14:00N 36°14' W 003°42'611.2
2018-Jan-08 13:30N 36°15' W 003°35'510.9
2018-Jan-08 13:00N 36°16' W 003°28'511.0
2018-Jan-08 12:30N 36°17' W 003°22'  
2018-Jan-04 22:07N 36°35' E 014°06'1 8.5
2018-Jan-04 21:58N 36°34' E 014°07'4 8.3
2018-Jan-04 21:30N 36°33' E 014°12'12 8.5
2018-Jan-04 20:09N 36°30' E 014°26'3 8.6
2018-Jan-04 19:47N 36°29' E 014°29'2 8.5
2018-Jan-04 19:30N 36°28' E 014°32'  
2018-Jan-02 11:45N 36°50' E 023°33'711.2
2018-Jan-02 11:08N 36°56' E 023°37'212.2
2018-Jan-02 11:00N 36°58' E 023°38'612.5
2018-Jan-02 10:30N 37°03' E 023°42'612.3
2018-Jan-02 10:00N 37°08' E 023°46'612.0
2018-Jan-02 09:30N 37°13' E 023°50'1212.1
2018-Jan-02 08:30N 37°24' E 023°58'912.0
2018-Jan-02 07:44N 37°32' E 024°02'312.4
2018-Jan-02 07:30N 37°35' E 024°03'13 3.4
2018-Jan-02 03:51N 37°47' E 024°07'410.9
2018-Jan-02 03:30N 37°48' E 024°12'1210.7
2018-Jan-02 02:21N 37°53' E 024°26'410.8
2018-Jan-02 02:00N 37°54' E 024°31'610.1
2018-Jan-02 01:27N 37°59' E 024°35'  

Dump ship's entire track history